createdAt,value
2023-05-05T00:02:05.232Z,3.33
2023-05-05T00:04:32.752Z,3.40
2023-05-05T00:07:00.452Z,3.60
2023-05-05T00:09:27.956Z,3.65
2023-05-05T00:11:55.446Z,3.33
2023-05-05T00:14:24.267Z,3.40
2023-05-05T00:16:52.458Z,3.70
2023-05-05T00:19:19.998Z,3.17
2023-05-05T00:21:47.486Z,3.40
2023-05-05T00:24:14.984Z,3.53
2023-05-05T00:26:42.467Z,3.25
2023-05-05T00:29:09.928Z,3.15
2023-05-05T00:31:38.872Z,3.13
2023-05-05T00:34:06.405Z,3.60
2023-05-05T00:36:34.280Z,3.35
2023-05-05T00:39:01.767Z,3.67
2023-05-05T00:41:29.252Z,3.70
2023-05-05T00:43:56.728Z,3.28
2023-05-05T00:46:26.021Z,3.45
2023-05-05T00:48:55.871Z,3.50
2023-05-05T00:51:25.025Z,3.70
2023-05-05T00:53:52.659Z,3.70
2023-05-05T00:56:21.927Z,3.60
2023-05-05T00:58:50.159Z,3.20
2023-05-05T01:01:18.884Z,3.50
2023-05-05T01:03:46.655Z,3.40
2023-05-05T01:06:37.124Z,3.40
2023-05-05T01:09:12.783Z,3.67
2023-05-05T01:11:46.282Z,3.78
2023-05-05T01:14:16.969Z,3.47
2023-05-05T01:16:56.987Z,3.70
2023-05-05T01:19:50.232Z,3.58
2023-05-05T01:22:24.225Z,3.70
2023-05-05T01:25:11.333Z,3.65
2023-05-05T01:27:50.670Z,3.70
2023-05-05T01:30:35.837Z,3.45
2023-05-05T01:33:07.677Z,3.80
2023-05-05T01:35:41.544Z,3.33
2023-05-05T01:38:15.397Z,3.65
2023-05-05T01:40:47.923Z,3.53
2023-05-05T01:43:19.828Z,3.95
2023-05-05T01:45:49.593Z,3.40
2023-05-05T01:48:21.302Z,3.90
2023-05-05T01:50:50.853Z,3.95
2023-05-05T01:53:21.140Z,3.78
2023-05-05T01:55:50.276Z,3.50
2023-05-05T01:58:18.487Z,3.67
2023-05-05T02:00:48.025Z,3.70
2023-05-05T02:03:18.740Z,4.10
2023-05-05T02:05:49.331Z,3.80
2023-05-05T02:08:17.522Z,3.70
2023-05-05T02:10:45.832Z,3.65
2023-05-05T02:13:15.345Z,4.05
2023-05-05T02:15:44.961Z,4.10
2023-05-05T02:18:13.247Z,3.92
2023-05-05T02:20:42.191Z,3.33
2023-05-05T02:23:10.011Z,4.05
2023-05-05T02:25:41.001Z,4.10
2023-05-05T02:28:14.077Z,4.20
2023-05-05T02:30:42.160Z,4.47
2023-05-05T02:33:12.594Z,4.22
2023-05-05T02:35:42.957Z,4.75
2023-05-05T02:38:17.248Z,5.05
2023-05-05T02:40:47.512Z,4.38
2023-05-05T02:43:20.674Z,4.65
2023-05-05T02:45:48.318Z,4.65
2023-05-05T02:48:15.939Z,4.70
2023-05-05T02:50:44.770Z,4.50
2023-05-05T02:53:12.345Z,4.60
2023-05-05T02:55:44.828Z,4.50
2023-05-05T02:58:21.377Z,4.95
2023-05-05T03:00:56.678Z,5.18
2023-05-05T03:03:31.607Z,4.75
2023-05-05T03:08:37.752Z,5.15
2023-05-05T03:11:07.782Z,5.63
2023-05-05T03:13:37.656Z,5.63
2023-05-05T03:16:08.238Z,5.65
2023-05-05T03:18:38.384Z,6.25
2023-05-05T03:21:08.923Z,6.75
2023-05-05T03:23:37.037Z,6.13
2023-05-05T03:26:04.621Z,6.30
2023-05-05T03:28:32.172Z,6.47
2023-05-05T03:30:59.750Z,7.45
2023-05-05T03:33:27.211Z,6.40
2023-05-05T03:35:54.677Z,6.38
2023-05-05T03:38:23.493Z,7.28
2023-05-05T03:40:50.950Z,6.90
2023-05-05T03:43:19.479Z,6.95
2023-05-05T03:45:46.948Z,7.22
2023-05-05T03:48:14.484Z,6.88
2023-05-05T03:50:41.934Z,6.80
2023-05-05T03:53:09.363Z,6.65
2023-05-05T03:55:38.269Z,7.47
2023-05-05T03:58:05.738Z,7.18
2023-05-05T04:00:34.270Z,7.93
2023-05-05T04:03:01.817Z,7.15
2023-05-05T04:05:29.383Z,7.47
2023-05-05T04:07:57.802Z,7.57
2023-05-05T04:10:25.339Z,8.35
2023-05-05T04:12:54.184Z,8.07
2023-05-05T04:15:21.849Z,7.45
2023-05-05T04:17:49.361Z,8.10
2023-05-05T04:20:16.916Z,8.40
2023-05-05T04:22:44.509Z,8.20
2023-05-05T04:25:11.948Z,9.43
2023-05-05T04:27:39.373Z,7.95
2023-05-05T04:30:10.716Z,9.20
2023-05-05T04:32:38.254Z,9.40
2023-05-05T04:35:06.512Z,8.95
2023-05-05T04:37:34.103Z,9.07
2023-05-05T04:40:01.573Z,9.50
2023-05-05T04:42:29.049Z,8.75
2023-05-05T04:44:56.530Z,10.60
2023-05-05T04:47:25.492Z,9.68
2023-05-05T04:49:55.262Z,9.60
2023-05-05T04:52:22.786Z,9.68
2023-05-05T04:54:50.494Z,9.90
2023-05-05T04:57:17.956Z,9.68
2023-05-05T04:59:45.407Z,10.32
2023-05-05T05:02:12.950Z,9.75
2023-05-05T05:04:41.926Z,9.82
2023-05-05T05:07:09.371Z,9.95
2023-05-05T05:09:36.889Z,9.68
2023-05-05T05:12:05.786Z,10.93
2023-05-05T05:14:37.669Z,9.93
2023-05-05T05:17:05.340Z,10.75
2023-05-05T05:19:32.949Z,10.10
2023-05-05T05:22:01.762Z,9.75
2023-05-05T05:24:29.892Z,10.50
2023-05-05T05:26:57.353Z,10.85
2023-05-05T05:29:24.784Z,10.48
2023-05-05T05:31:52.217Z,11.30
2023-05-05T05:34:19.679Z,11.05
2023-05-05T05:36:47.151Z,10.90
2023-05-05T05:39:15.946Z,10.43
2023-05-05T05:41:43.409Z,11.50
2023-05-05T05:44:10.860Z,11.52
2023-05-05T05:46:38.332Z,11.60
2023-05-05T05:49:05.803Z,12.00
2023-05-05T05:51:33.267Z,11.27
2023-05-05T05:54:00.703Z,11.38
2023-05-05T05:56:29.480Z,11.00
2023-05-05T05:58:56.975Z,11.18
2023-05-05T06:01:24.423Z,11.38
2023-05-05T06:03:51.954Z,10.65
2023-05-05T06:06:19.591Z,11.68
2023-05-05T06:08:47.042Z,11.57
2023-05-05T06:11:14.508Z,11.10
2023-05-05T06:13:43.304Z,10.93
2023-05-05T06:16:10.815Z,10.40
2023-05-05T06:18:38.331Z,10.77
2023-05-05T06:21:06.607Z,11.90
2023-05-05T06:23:34.082Z,11.05
2023-05-05T06:26:01.564Z,10.95
2023-05-05T06:28:29.016Z,10.90
2023-05-05T06:30:57.856Z,11.95
2023-05-05T06:33:25.338Z,11.13
2023-05-05T06:35:53.068Z,10.98
2023-05-05T06:38:20.635Z,11.32
2023-05-05T06:40:48.645Z,11.25
2023-05-05T06:43:16.305Z,10.75
2023-05-05T06:45:44.108Z,10.98
2023-05-05T06:48:13.321Z,10.95
2023-05-05T06:50:40.799Z,10.68
2023-05-05T06:53:08.268Z,10.10
2023-05-05T06:55:35.734Z,11.05
2023-05-05T06:58:03.269Z,10.95
2023-05-05T07:00:30.822Z,10.40
2023-05-05T07:02:58.387Z,9.93
2023-05-05T07:05:27.292Z,9.57
2023-05-05T07:07:55.736Z,9.07
2023-05-05T07:10:24.736Z,9.10
2023-05-05T07:12:54.633Z,9.10
2023-05-05T07:15:28.769Z,9.20
2023-05-05T07:20:25.092Z,8.13
2023-05-05T07:22:54.000Z,8.30
2023-05-05T07:25:22.240Z,8.82
2023-05-05T07:27:49.818Z,8.85
2023-05-05T07:30:19.113Z,9.20
2023-05-05T07:32:47.143Z,8.45
2023-05-05T07:35:14.880Z,7.90
2023-05-05T07:37:42.370Z,7.82
2023-05-05T07:40:12.087Z,7.80
2023-05-05T07:42:39.595Z,7.43
2023-05-05T07:45:08.034Z,7.95
2023-05-05T07:47:35.626Z,7.30
2023-05-05T07:50:03.284Z,8.07
2023-05-05T07:52:45.112Z,8.60
2023-05-05T07:55:16.979Z,7.88
2023-05-05T07:57:44.474Z,8.35
2023-05-05T08:00:13.796Z,8.25
2023-05-05T08:02:41.643Z,8.27
2023-05-05T08:05:10.061Z,9.00
2023-05-05T08:07:41.108Z,6.78
2023-05-05T08:10:10.256Z,6.95
2023-05-05T08:12:39.504Z,7.63
2023-05-05T08:15:08.119Z,7.82
2023-05-05T08:17:47.120Z,7.53
2023-05-05T08:20:14.736Z,6.68
2023-05-05T08:22:42.794Z,6.78
2023-05-05T08:25:11.434Z,7.70
2023-05-05T08:27:41.314Z,7.47
2023-05-05T08:30:10.009Z,7.38
2023-05-05T08:32:38.233Z,6.68
2023-05-05T08:35:07.259Z,7.30
2023-05-05T08:37:35.170Z,6.72
2023-05-05T08:40:03.265Z,6.20
2023-05-05T08:42:38.117Z,6.68
2023-05-05T08:45:10.464Z,6.13
2023-05-05T08:47:39.523Z,5.97
2023-05-05T08:50:10.852Z,5.75
2023-05-05T08:52:40.424Z,6.05
2023-05-05T08:55:15.365Z,5.57
2023-05-05T09:00:18.951Z,5.85
2023-05-05T09:02:47.770Z,5.93
2023-05-05T09:05:15.461Z,5.97
2023-05-05T09:07:43.874Z,5.38
2023-05-05T09:10:13.025Z,5.72
2023-05-05T09:12:41.270Z,5.75
2023-05-05T09:15:10.097Z,5.10
2023-05-05T09:17:39.926Z,5.40
2023-05-05T09:20:09.279Z,4.80
2023-05-05T09:22:38.269Z,5.20
2023-05-05T09:25:06.908Z,5.75
2023-05-05T09:27:38.661Z,5.65
2023-05-05T09:30:07.015Z,5.78
2023-05-05T09:32:46.344Z,4.70
2023-05-05T09:35:14.305Z,4.30
2023-05-05T09:37:41.861Z,4.55
2023-05-05T09:40:10.778Z,5.20
2023-05-05T09:42:38.827Z,4.57
2023-05-05T09:45:25.885Z,4.80
2023-05-05T09:47:59.761Z,3.80
2023-05-05T09:50:30.543Z,3.80
2023-05-05T09:53:00.523Z,3.58
2023-05-05T09:55:28.225Z,3.58
2023-05-05T09:57:55.814Z,4.40
2023-05-05T10:00:38.847Z,4.47
2023-05-05T10:03:07.702Z,4.72
2023-05-05T10:05:48.121Z,4.18
2023-05-05T10:08:15.679Z,4.68
2023-05-05T10:10:57.274Z,4.25
2023-05-05T10:13:25.406Z,4.80
2023-05-05T10:15:54.710Z,4.68
2023-05-05T10:18:24.860Z,5.47
2023-05-05T10:20:59.053Z,5.53
2023-05-05T10:23:35.460Z,4.53
2023-05-05T10:26:05.391Z,4.70
2023-05-05T10:28:34.647Z,5.40
2023-05-05T10:31:12.858Z,4.55
2023-05-05T10:33:55.233Z,4.60
2023-05-05T10:36:24.384Z,5.15
2023-05-05T10:38:56.032Z,5.30
2023-05-05T10:41:24.360Z,5.15
2023-05-05T10:43:53.648Z,5.88
2023-05-05T10:46:21.190Z,5.05
2023-05-05T10:48:56.050Z,5.00
2023-05-05T10:51:39.553Z,5.25
2023-05-05T10:54:13.123Z,5.22
2023-05-05T10:56:42.949Z,4.80
2023-05-05T10:59:40.151Z,4.68
2023-05-05T11:02:24.522Z,4.60
2023-05-05T11:05:10.502Z,4.65
2023-05-05T11:07:38.699Z,4.35
2023-05-05T11:10:08.130Z,4.60
2023-05-05T11:13:09.098Z,5.05
2023-05-05T11:15:40.358Z,4.40
2023-05-05T11:18:08.577Z,4.70
2023-05-05T11:21:08.931Z,3.83
2023-05-05T11:23:36.706Z,5.05
2023-05-05T11:26:04.287Z,4.30
2023-05-05T11:28:32.343Z,3.90
2023-05-05T11:31:19.895Z,4.03
2023-05-05T11:33:47.658Z,4.10
2023-05-05T11:36:17.806Z,4.10
2023-05-05T11:39:02.282Z,4.00
2023-05-05T11:41:56.521Z,4.03
2023-05-05T11:44:31.773Z,3.80
2023-05-05T11:47:29.102Z,3.83
2023-05-05T11:49:56.979Z,3.80
2023-05-05T11:52:30.211Z,3.80
2023-05-05T11:55:03.575Z,3.80
2023-05-05T11:57:31.693Z,3.50
2023-05-05T12:00:01.281Z,3.80
2023-05-05T12:02:30.470Z,4.38
2023-05-05T12:04:59.470Z,4.22
2023-05-05T12:07:29.776Z,4.40
2023-05-05T12:09:57.605Z,3.80
2023-05-05T12:12:36.207Z,4.38
2023-05-05T12:15:04.340Z,3.30
2023-05-05T12:17:43.736Z,3.50
2023-05-05T12:20:13.102Z,3.30
2023-05-05T12:22:42.467Z,3.45
2023-05-05T12:25:10.782Z,3.30
2023-05-05T12:27:38.608Z,3.75
2023-05-05T12:30:14.823Z,3.40
2023-05-05T12:32:42.741Z,3.97
2023-05-05T12:35:11.164Z,2.53
2023-05-05T12:37:39.331Z,2.28
2023-05-05T12:40:29.247Z,2.70
2023-05-05T12:42:58.079Z,3.03
2023-05-05T12:45:25.642Z,2.78
2023-05-05T12:47:53.356Z,3.15
2023-05-05T12:50:30.795Z,2.95
2023-05-05T12:52:58.457Z,2.85
2023-05-05T12:55:36.568Z,2.60
2023-05-05T12:58:05.398Z,2.88
2023-05-05T13:00:33.128Z,2.78
2023-05-05T13:03:00.682Z,2.50
2023-05-05T13:05:32.581Z,2.75
2023-05-05T13:08:00.207Z,2.28
2023-05-05T13:10:28.167Z,2.58
2023-05-05T13:12:56.638Z,2.83
2023-05-05T13:15:25.844Z,2.30
2023-05-05T13:18:00.120Z,2.53
2023-05-05T13:20:27.769Z,2.40
2023-05-05T13:22:55.328Z,2.40
2023-05-05T13:25:22.779Z,2.15
2023-05-05T13:27:50.271Z,2.20
2023-05-05T13:30:17.713Z,2.75
2023-05-05T13:32:46.564Z,2.40
2023-05-05T13:35:16.203Z,2.10
2023-05-05T13:37:44.261Z,1.90
2023-05-05T13:40:13.265Z,2.30
2023-05-05T13:42:40.965Z,2.00
2023-05-05T13:45:09.457Z,2.60
2023-05-05T13:47:37.086Z,2.20
2023-05-05T13:50:07.244Z,1.80
2023-05-05T13:52:34.711Z,1.90
2023-05-05T13:55:02.732Z,2.10
2023-05-05T13:57:30.186Z,1.98
2023-05-05T13:59:57.829Z,2.42
2023-05-05T14:02:25.525Z,2.47
2023-05-05T14:04:52.995Z,2.03
2023-05-05T14:07:21.826Z,2.42
2023-05-05T14:09:49.294Z,2.70
2023-05-05T14:12:16.807Z,2.28
2023-05-05T14:14:44.293Z,2.40
2023-05-05T14:17:12.726Z,2.08
2023-05-05T14:19:40.171Z,2.40
2023-05-05T14:22:07.685Z,2.50
2023-05-05T14:24:36.452Z,2.55
2023-05-05T14:27:04.318Z,2.47
2023-05-05T14:29:31.854Z,2.72
2023-05-05T14:31:59.367Z,2.83
2023-05-05T14:34:26.845Z,2.75
2023-05-05T14:36:54.296Z,3.20
2023-05-05T14:39:21.732Z,3.42
2023-05-05T14:41:50.866Z,3.33
2023-05-05T14:44:18.371Z,3.15
2023-05-05T14:46:46.222Z,3.20
2023-05-05T14:49:14.281Z,3.05
2023-05-05T14:51:42.705Z,3.63
2023-05-05T14:54:24.116Z,3.80
2023-05-05T14:56:56.629Z,3.38
2023-05-05T14:59:24.219Z,3.65
2023-05-05T15:01:51.759Z,3.75
2023-05-05T15:04:19.284Z,3.55
2023-05-05T15:06:46.745Z,4.10
2023-05-05T15:09:14.210Z,3.78
2023-05-05T15:11:41.926Z,13.48
2023-05-05T15:14:10.744Z,15.70
2023-05-05T15:16:38.531Z,5.78
2023-05-05T15:19:06.077Z,4.50
2023-05-05T15:21:33.564Z,3.90
2023-05-05T15:24:01.052Z,6.55
2023-05-05T15:26:28.515Z,6.65
2023-05-05T15:28:55.991Z,4.63
2023-05-05T15:31:24.983Z,3.30
2023-05-05T15:33:52.477Z,2.90
2023-05-05T15:36:22.417Z,3.58
2023-05-05T15:38:50.075Z,3.80
2023-05-05T15:41:17.554Z,3.88
2023-05-05T15:43:45.017Z,4.22
2023-05-05T15:46:12.547Z,4.07
2023-05-05T15:48:41.325Z,3.60
2023-05-05T15:51:08.778Z,4.38
2023-05-05T15:53:36.337Z,4.35
2023-05-05T15:56:03.788Z,4.40
2023-05-05T15:58:31.236Z,6.00
2023-05-05T16:00:58.716Z,4.50
2023-05-05T16:03:26.315Z,4.00
2023-05-05T16:05:55.170Z,4.00
2023-05-05T16:08:22.672Z,4.45
2023-05-05T16:10:50.139Z,3.85
2023-05-05T16:13:17.639Z,3.25
2023-05-05T16:15:45.277Z,3.75
2023-05-05T16:18:12.872Z,3.53
2023-05-05T16:20:40.307Z,3.70
2023-05-05T16:23:09.106Z,3.30
2023-05-05T16:25:36.580Z,4.10
2023-05-05T16:28:04.340Z,4.40
2023-05-05T16:30:31.778Z,9.70
2023-05-05T16:32:59.322Z,12.50
2023-05-05T16:35:27.020Z,9.85
2023-05-05T16:37:54.883Z,6.10
2023-05-05T16:40:23.760Z,10.13
2023-05-05T16:42:51.189Z,7.03
2023-05-05T16:45:18.804Z,5.35
2023-05-05T16:47:46.261Z,3.85
2023-05-05T16:50:13.826Z,3.72
2023-05-05T16:52:41.331Z,3.28
2023-05-05T16:55:09.782Z,3.45
2023-05-05T16:57:38.814Z,3.28
2023-05-05T17:00:09.112Z,3.08
2023-05-05T17:02:36.714Z,3.25
2023-05-05T17:05:04.471Z,3.40
2023-05-05T17:07:32.051Z,3.33
2023-05-05T17:09:59.568Z,3.30
2023-05-05T17:12:27.025Z,3.33
2023-05-05T17:14:55.870Z,3.70
2023-05-05T17:17:23.513Z,3.90
2023-05-05T17:19:50.963Z,4.10
2023-05-05T17:22:18.445Z,3.50
2023-05-05T17:24:45.950Z,3.47
2023-05-05T17:27:13.666Z,3.63
2023-05-05T17:29:41.378Z,3.78
2023-05-05T17:32:10.378Z,3.90
2023-05-05T17:34:37.953Z,3.78
2023-05-05T17:37:05.463Z,4.05
2023-05-05T17:39:33.659Z,4.10
2023-05-05T17:42:01.152Z,4.22
2023-05-05T17:44:28.650Z,4.15
2023-05-05T17:46:56.237Z,3.95
2023-05-05T17:49:25.492Z,4.30
2023-05-05T17:51:53.016Z,3.90
2023-05-05T17:54:20.931Z,4.07
2023-05-05T17:56:48.474Z,4.18
2023-05-05T17:59:15.931Z,4.05
2023-05-05T18:01:43.675Z,4.38
2023-05-05T18:04:11.141Z,4.38
2023-05-05T18:06:39.940Z,4.20
2023-05-05T18:09:09.166Z,5.20
2023-05-05T18:11:37.927Z,4.65
2023-05-05T18:14:05.402Z,5.20
2023-05-05T18:16:33.104Z,5.30
2023-05-05T18:19:00.640Z,4.70
2023-05-05T18:21:29.733Z,5.22
2023-05-05T18:24:07.712Z,4.85
2023-05-05T18:26:48.334Z,4.90
2023-05-05T18:29:16.443Z,4.93
2023-05-05T18:31:44.555Z,5.43
2023-05-05T18:34:12.266Z,5.70
2023-05-05T18:36:39.744Z,6.05
2023-05-05T18:39:08.569Z,5.57
2023-05-05T18:41:37.001Z,6.25
2023-05-05T18:44:04.653Z,5.90
2023-05-05T18:46:32.195Z,6.35
2023-05-05T18:49:00.447Z,6.57
2023-05-05T18:51:28.293Z,5.78
2023-05-05T18:53:55.922Z,6.65
2023-05-05T18:56:24.777Z,6.47
2023-05-05T18:58:52.206Z,6.68
2023-05-05T19:01:20.136Z,6.95
2023-05-05T19:03:48.638Z,7.35
2023-05-05T19:06:16.411Z,7.93
2023-05-05T19:08:45.071Z,7.18
2023-05-05T19:11:14.620Z,7.82
2023-05-05T19:13:43.453Z,7.97
2023-05-05T19:16:11.695Z,8.07
2023-05-05T19:18:39.872Z,8.32
2023-05-05T19:21:07.493Z,8.75
2023-05-05T19:23:36.003Z,8.38
2023-05-05T19:26:05.553Z,8.90
2023-05-05T19:28:33.342Z,8.90
2023-05-05T19:31:02.180Z,9.23
2023-05-05T19:33:29.668Z,9.50
2023-05-05T19:35:57.124Z,9.68
2023-05-05T19:38:24.590Z,8.90
2023-05-05T19:40:53.901Z,9.25
2023-05-05T19:43:21.349Z,10.55
2023-05-05T19:45:48.847Z,10.15
2023-05-05T19:48:17.661Z,10.10
2023-05-05T19:50:45.298Z,10.10
2023-05-05T19:53:12.757Z,10.20
2023-05-05T19:55:40.198Z,10.82
2023-05-05T19:58:07.774Z,9.93
2023-05-05T20:00:35.632Z,10.07
2023-05-05T20:03:03.228Z,11.25
2023-05-05T20:05:32.071Z,11.73
2023-05-05T20:07:59.529Z,10.18
2023-05-05T20:10:27.007Z,10.43
2023-05-05T20:12:54.594Z,11.02
2023-05-05T20:15:22.447Z,11.65
2023-05-05T20:17:50.396Z,11.55
2023-05-05T20:20:19.968Z,12.70
2023-05-05T20:22:49.990Z,13.27
2023-05-05T20:25:17.880Z,13.55
2023-05-05T20:27:45.691Z,13.82
2023-05-05T20:30:14.319Z,14.40
2023-05-05T20:32:41.914Z,14.27
2023-05-05T20:35:12.268Z,13.93
2023-05-05T20:37:39.743Z,12.80
2023-05-05T20:40:10.336Z,13.95
2023-05-05T20:42:38.086Z,12.70
2023-05-05T20:45:06.937Z,14.00
2023-05-05T20:47:35.043Z,15.18
2023-05-05T20:50:02.621Z,15.13
2023-05-05T20:52:30.151Z,16.50
2023-05-05T20:54:57.602Z,16.00
2023-05-05T20:57:26.655Z,14.75
2023-05-05T20:59:54.106Z,13.07
2023-05-05T21:02:21.715Z,15.40
2023-05-05T21:04:49.225Z,16.50
2023-05-05T21:07:16.707Z,17.50
2023-05-05T21:09:46.907Z,13.88
2023-05-05T21:12:14.380Z,12.95
2023-05-05T21:14:45.457Z,14.45
2023-05-05T21:17:12.967Z,15.32
2023-05-05T21:19:41.128Z,14.90
2023-05-05T21:22:08.582Z,13.98
2023-05-05T21:24:36.076Z,13.77
2023-05-05T21:27:03.549Z,14.00
2023-05-05T21:29:34.154Z,13.73
2023-05-05T21:32:03.044Z,11.68
2023-05-05T21:34:30.529Z,11.30
2023-05-05T21:36:58.081Z,11.05
2023-05-05T21:39:25.680Z,12.38
2023-05-05T21:41:53.146Z,13.27
2023-05-05T21:44:21.025Z,14.55
2023-05-05T21:46:48.711Z,15.38
2023-05-05T21:49:18.763Z,15.07
2023-05-05T21:51:46.649Z,16.48
2023-05-05T21:54:14.144Z,18.20
2023-05-05T21:56:41.743Z,17.05
2023-05-05T21:59:09.272Z,17.77
2023-05-05T22:01:36.835Z,17.95
2023-05-05T22:04:04.616Z,18.02
2023-05-05T22:06:33.472Z,16.88
2023-05-05T22:09:01.168Z,17.00
2023-05-05T22:11:28.643Z,17.67
2023-05-05T22:13:56.260Z,17.02
2023-05-05T22:16:23.773Z,17.15
2023-05-05T22:18:51.309Z,18.77
2023-05-05T22:21:18.949Z,17.65
2023-05-05T22:23:47.787Z,17.63
2023-05-05T22:26:15.345Z,17.92
2023-05-05T22:28:42.830Z,18.02
2023-05-05T22:31:10.317Z,18.27
2023-05-05T22:33:37.893Z,17.10
2023-05-05T22:36:05.562Z,18.02
2023-05-05T22:38:33.026Z,17.27
2023-05-05T22:41:01.900Z,17.70
2023-05-05T22:43:29.376Z,16.80
2023-05-05T22:45:57.825Z,17.33
2023-05-05T22:48:25.349Z,17.55
2023-05-05T22:50:52.792Z,17.92
2023-05-05T22:53:20.390Z,19.50
2023-05-05T22:55:47.839Z,18.65
2023-05-05T22:58:16.626Z,16.88
2023-05-05T23:00:44.134Z,17.40
2023-05-05T23:03:12.085Z,17.98
2023-05-05T23:05:39.541Z,19.33
2023-05-05T23:08:07.037Z,18.60
2023-05-05T23:10:34.568Z,19.20
2023-05-05T23:13:02.068Z,18.38
2023-05-05T23:15:30.989Z,21.38
2023-05-05T23:17:58.488Z,19.50
2023-05-05T23:20:26.164Z,19.38
2023-05-05T23:22:53.595Z,19.75
2023-05-05T23:25:21.044Z,19.23
2023-05-05T23:27:48.742Z,19.73
2023-05-05T23:30:16.555Z,19.75
2023-05-05T23:32:45.968Z,20.55
2023-05-05T23:35:13.553Z,19.95
2023-05-05T23:37:41.006Z,20.75
2023-05-05T23:40:09.788Z,20.83
2023-05-05T23:42:37.248Z,21.08
2023-05-05T23:45:05.222Z,20.20
2023-05-05T23:47:32.739Z,20.65
2023-05-05T23:50:01.831Z,20.55
2023-05-05T23:52:29.301Z,19.20
2023-05-05T23:54:56.778Z,19.88
2023-05-05T23:57:24.309Z,19.02
2023-05-05T23:59:51.747Z,20.40
